createdAt,value
2022-09-12T00:00:10.922Z,100762.50
2022-09-12T00:02:40.768Z,100761.72
2022-09-12T00:08:16.516Z,100759.81
2022-09-12T00:10:43.872Z,100756.94
2022-09-12T00:13:11.350Z,100753.63
2022-09-12T00:15:40.078Z,100758.94
2022-09-12T00:18:08.230Z,100754.84
2022-09-12T00:20:34.552Z,100753.00
2022-09-12T00:23:01.034Z,100743.81
2022-09-12T00:25:30.545Z,100746.50
2022-09-12T00:27:57.171Z,100755.63
2022-09-12T00:30:23.884Z,100751.63
2022-09-12T00:32:51.427Z,100754.41
2022-09-12T00:35:17.737Z,100745.38
2022-09-12T00:37:44.049Z,100744.53
2022-09-12T00:40:10.887Z,100741.25
2022-09-12T00:42:37.207Z,100745.28
2022-09-12T00:45:06.007Z,100734.78
2022-09-12T00:47:33.528Z,100746.28
2022-09-12T00:50:10.982Z,100744.28
2022-09-12T00:52:44.112Z,100743.72
2022-09-12T00:55:13.139Z,100734.19
2022-09-12T00:57:45.448Z,100735.63
2022-09-12T01:00:15.568Z,100738.47
2022-09-12T01:02:49.123Z,100734.56
2022-09-12T01:05:15.867Z,100741.81
2022-09-12T01:07:44.462Z,100737.53
2022-09-12T01:10:11.386Z,100731.47
2022-09-12T01:12:40.925Z,100729.19
2022-09-12T01:15:08.073Z,100725.81
2022-09-12T01:18:09.143Z,100725.91
2022-09-12T01:20:45.975Z,100721.00
2022-09-12T01:23:43.849Z,100726.13
2022-09-12T01:26:25.436Z,100726.13
2022-09-12T01:29:11.451Z,100719.19
2022-09-12T01:31:47.448Z,100719.63
2022-09-12T01:34:28.137Z,100715.66
2022-09-12T01:37:10.735Z,100713.66
2022-09-12T01:40:10.331Z,100719.56
2022-09-12T01:42:53.651Z,100722.72
2022-09-12T01:45:30.877Z,100718.22
2022-09-12T01:48:07.742Z,100715.66
2022-09-12T01:50:44.220Z,100713.81
2022-09-12T01:53:26.254Z,100709.94
2022-09-12T01:56:08.708Z,100711.78
2022-09-12T01:58:49.490Z,100719.16
2022-09-12T02:01:26.510Z,100716.91
2022-09-12T02:04:08.923Z,100714.84
2022-09-12T02:06:43.868Z,100720.00
2022-09-12T02:09:18.288Z,100709.25
2022-09-12T02:11:46.127Z,100714.38
2022-09-12T02:14:18.549Z,100712.56
2022-09-12T02:16:51.252Z,100711.56
2022-09-12T02:19:22.183Z,100709.31
2022-09-12T02:21:53.908Z,100710.00
2022-09-12T02:24:22.490Z,100709.78
2022-09-12T02:26:54.688Z,100708.63
2022-09-12T02:29:21.079Z,100705.06
2022-09-12T02:31:53.081Z,100701.91
2022-09-12T02:35:06.882Z,100693.41
2022-09-12T02:37:54.936Z,100694.00
2022-09-12T02:40:22.874Z,100690.06
2022-09-12T02:42:50.398Z,100695.84
2022-09-12T02:45:18.115Z,100691.75
2022-09-12T02:48:02.289Z,100693.19
2022-09-12T02:50:29.301Z,100695.72
2022-09-12T02:52:59.929Z,100688.97
2022-09-12T02:55:28.017Z,100699.00
2022-09-12T02:57:54.368Z,100691.94
2022-09-12T03:00:20.926Z,100682.47
2022-09-12T03:03:05.579Z,100691.28
2022-09-12T03:05:33.379Z,100693.00
2022-09-12T03:08:14.580Z,100689.41
2022-09-12T03:10:55.401Z,100698.78
2022-09-12T03:13:41.588Z,100691.53
2022-09-12T03:16:26.415Z,100692.53
2022-09-12T03:19:09.529Z,100691.69
2022-09-12T03:21:48.192Z,100678.75
2022-09-12T03:24:29.559Z,100689.66
2022-09-12T03:27:20.791Z,100685.53
2022-09-12T03:29:48.729Z,100675.81
2022-09-12T03:32:15.757Z,100690.38
2022-09-12T03:34:42.101Z,100683.16
2022-09-12T03:37:08.448Z,100684.47
2022-09-12T03:39:34.871Z,100685.31
2022-09-12T03:42:01.194Z,100695.34
2022-09-12T03:44:27.480Z,100682.63
2022-09-12T03:46:53.820Z,100684.03
2022-09-12T03:49:20.153Z,100692.81
2022-09-12T03:51:46.469Z,100678.81
2022-09-12T03:54:12.807Z,100685.03
2022-09-12T03:56:40.994Z,100687.03
2022-09-12T03:59:07.742Z,100693.25
2022-09-12T04:01:34.585Z,100687.72
2022-09-12T04:04:00.991Z,100690.72
2022-09-12T04:06:27.427Z,100692.44
2022-09-12T04:08:55.043Z,100685.94
2022-09-12T04:11:22.665Z,100691.19
2022-09-12T04:13:49.729Z,100685.09
2022-09-12T04:16:17.469Z,100690.59
2022-09-12T04:18:44.363Z,100690.91
2022-09-12T04:21:14.363Z,100699.56
2022-09-12T04:23:40.823Z,100691.94
2022-09-12T04:26:08.115Z,100685.84
2022-09-12T04:28:35.976Z,100694.78
2022-09-12T04:31:04.714Z,100695.88
2022-09-12T04:33:31.224Z,100684.72
2022-09-12T04:36:06.198Z,100698.31
2022-09-12T04:38:33.355Z,100692.63
2022-09-12T04:40:59.932Z,100690.78
2022-09-12T04:43:26.260Z,100693.47
2022-09-12T04:45:52.608Z,100688.81
2022-09-12T04:48:19.019Z,100691.66
2022-09-12T04:50:45.329Z,100699.88
2022-09-12T04:53:11.609Z,100693.94
2022-09-12T04:55:37.911Z,100691.22
2022-09-12T04:58:04.300Z,100697.91
2022-09-12T05:00:30.635Z,100703.28
2022-09-12T05:02:56.900Z,100697.59
2022-09-12T05:05:23.244Z,100694.91
2022-09-12T05:07:49.634Z,100690.84
2022-09-12T05:10:16.362Z,100693.09
2022-09-12T05:12:42.774Z,100695.06
2022-09-12T05:15:09.640Z,100694.38
2022-09-12T05:17:36.020Z,100696.63
2022-09-12T05:20:03.348Z,100695.94
2022-09-12T05:22:29.641Z,100693.38
2022-09-12T05:24:55.910Z,100700.47
2022-09-12T05:27:22.217Z,100694.75
2022-09-12T05:29:48.583Z,100702.69
2022-09-12T05:32:14.902Z,100699.75
2022-09-12T05:34:41.304Z,100704.69
2022-09-12T05:37:07.776Z,100701.44
2022-09-12T05:39:34.091Z,100699.44
2022-09-12T05:42:00.404Z,100704.41
2022-09-12T05:44:26.851Z,100706.66
2022-09-12T05:46:53.536Z,100709.47
2022-09-12T05:49:21.331Z,100711.03
2022-09-12T05:51:47.695Z,100707.63
2022-09-12T05:54:17.981Z,100701.78
2022-09-12T05:56:45.440Z,100697.53
2022-09-12T05:59:17.631Z,100700.72
2022-09-12T06:01:44.904Z,100709.69
2022-09-12T06:04:12.107Z,100702.00
2022-09-12T06:06:41.688Z,100699.56
2022-09-12T06:09:08.708Z,100694.19
2022-09-12T06:11:37.178Z,100701.69
2022-09-12T06:14:04.146Z,100702.91
2022-09-12T06:16:32.121Z,100707.03
2022-09-12T06:19:01.219Z,100703.34
2022-09-12T06:21:28.333Z,100701.34
2022-09-12T06:23:55.476Z,100705.13
2022-09-12T06:26:23.429Z,100699.28
2022-09-12T06:28:50.324Z,100699.09
2022-09-12T06:31:19.456Z,100687.97
2022-09-12T06:33:48.731Z,100689.53
2022-09-12T06:36:21.180Z,100686.22
2022-09-12T06:38:48.680Z,100691.94
2022-09-12T06:41:15.762Z,100696.09
2022-09-12T06:43:42.820Z,100691.78
2022-09-12T06:46:10.385Z,100682.47
2022-09-12T06:48:41.555Z,100678.63
2022-09-12T06:51:15.078Z,100679.94
2022-09-12T06:53:42.537Z,100680.84
2022-09-12T06:56:19.589Z,100680.69
2022-09-12T06:58:47.513Z,100686.88
2022-09-12T07:01:15.229Z,100692.13
2022-09-12T07:03:42.779Z,100688.97
2022-09-12T07:06:13.746Z,100690.38
2022-09-12T07:08:40.797Z,100691.78
2022-09-12T07:11:14.768Z,100687.13
2022-09-12T07:13:42.668Z,100681.41
2022-09-12T07:16:10.473Z,100679.13
2022-09-12T07:18:38.299Z,100684.63
2022-09-12T07:21:07.308Z,100686.78
2022-09-12T07:23:33.792Z,100689.16
2022-09-12T07:26:01.124Z,100689.41
2022-09-12T07:28:30.133Z,100681.84
2022-09-12T07:30:56.991Z,100686.44
2022-09-12T07:33:27.300Z,100686.13
2022-09-12T07:35:54.345Z,100690.88
2022-09-12T07:38:21.425Z,100685.44
2022-09-12T07:40:47.738Z,100686.03
2022-09-12T07:43:14.157Z,100684.00
2022-09-12T07:45:42.194Z,100678.41
2022-09-12T07:48:09.328Z,100673.50
2022-09-12T07:50:36.639Z,100675.72
2022-09-12T07:53:04.447Z,100673.84
2022-09-12T07:55:31.365Z,100669.25
2022-09-12T07:57:57.876Z,100674.28
2022-09-12T08:00:24.891Z,100683.75
2022-09-12T08:02:52.642Z,100679.38
2022-09-12T08:05:20.177Z,100671.91
2022-09-12T08:07:47.218Z,100684.06
2022-09-12T08:10:13.730Z,100688.78
2022-09-12T08:12:40.004Z,100681.63
2022-09-12T08:15:06.864Z,100681.94
2022-09-12T08:17:33.164Z,100685.16
2022-09-12T08:19:59.580Z,100688.53
2022-09-12T08:22:25.960Z,100679.06
2022-09-12T08:24:52.615Z,100682.16
2022-09-12T08:27:18.973Z,100680.09
2022-09-12T08:29:45.307Z,100668.78
2022-09-12T08:32:11.592Z,100672.84
2022-09-12T08:34:37.907Z,100668.22
2022-09-12T08:37:04.300Z,100680.13
2022-09-12T08:39:30.634Z,100681.19
2022-09-12T08:42:03.145Z,100685.06
2022-09-12T08:44:47.949Z,100694.56
2022-09-12T08:47:26.894Z,100696.81
2022-09-12T08:50:09.516Z,100688.00
2022-09-12T08:52:58.623Z,100683.38
2022-09-12T08:55:35.990Z,100683.22
2022-09-12T08:58:13.251Z,100674.94
2022-09-12T09:01:07.353Z,100677.84
2022-09-12T09:03:58.393Z,100682.56
2022-09-12T09:06:48.080Z,100673.97
2022-09-12T09:09:32.647Z,100680.16
2022-09-12T09:12:03.611Z,100677.78
2022-09-12T09:14:54.926Z,100673.19
2022-09-12T09:17:30.039Z,100687.19
2022-09-12T09:20:13.443Z,100679.72
2022-09-12T09:23:01.168Z,100669.66
2022-09-12T09:25:48.764Z,100662.47
2022-09-12T09:28:23.754Z,100663.44
2022-09-12T09:30:50.392Z,100655.81
2022-09-12T09:33:23.446Z,100660.19
2022-09-12T09:36:36.303Z,100661.84
2022-09-12T09:39:08.939Z,100656.78
2022-09-12T09:42:07.443Z,100657.41
2022-09-12T09:44:33.816Z,100664.50
2022-09-12T09:47:01.040Z,100661.59
2022-09-12T09:49:31.714Z,100664.03
2022-09-12T09:52:00.813Z,100655.03
2022-09-12T09:54:40.611Z,100664.63
2022-09-12T09:57:35.031Z,100655.81
2022-09-12T10:00:26.601Z,100660.53
2022-09-12T10:03:02.955Z,100651.91
2022-09-12T10:05:29.664Z,100651.69
2022-09-12T10:07:56.038Z,100651.09
2022-09-12T10:10:25.394Z,100655.50
2022-09-12T10:13:07.348Z,100652.19
2022-09-12T10:15:34.615Z,100649.19
2022-09-12T10:18:02.992Z,100646.63
2022-09-12T10:20:44.815Z,100640.81
2022-09-12T10:23:37.435Z,100640.34
2022-09-12T10:26:09.888Z,100643.50
2022-09-12T10:28:43.347Z,100637.84
2022-09-12T10:31:15.445Z,100637.13
2022-09-12T10:33:47.484Z,100632.31
2022-09-12T10:36:15.544Z,100622.97
2022-09-12T10:38:49.673Z,100622.59
2022-09-12T10:41:16.123Z,100612.41
2022-09-12T10:43:42.974Z,100616.16
2022-09-12T10:46:18.478Z,100616.06
2022-09-12T10:48:53.016Z,100612.16
2022-09-12T10:51:25.206Z,100615.63
2022-09-12T10:53:54.614Z,100606.06
2022-09-12T10:56:26.064Z,100611.78
2022-09-12T10:59:19.883Z,100607.34
2022-09-12T11:01:59.728Z,100589.91
2022-09-12T11:04:28.946Z,100597.91
2022-09-12T11:07:20.538Z,100603.56
2022-09-12T11:09:56.233Z,100585.97
2022-09-12T11:12:47.260Z,100587.25
2022-09-12T11:15:52.031Z,100598.19
2022-09-12T11:18:50.934Z,100597.72
2022-09-12T11:21:34.007Z,100592.09
2022-09-12T11:24:37.553Z,100594.41
2022-09-12T11:27:34.981Z,100590.81
2022-09-12T11:30:12.281Z,100579.00
2022-09-12T11:32:59.837Z,100580.19
2022-09-12T11:35:29.384Z,100584.03
2022-09-12T11:38:36.224Z,100572.97
2022-09-12T11:41:07.192Z,100578.75
2022-09-12T11:43:56.676Z,100579.88
2022-09-12T11:46:39.283Z,100569.22
2022-09-12T11:49:21.087Z,100571.78
2022-09-12T11:52:15.209Z,100572.72
2022-09-12T11:55:03.839Z,100574.22
2022-09-12T11:57:39.703Z,100570.88
2022-09-12T12:00:17.635Z,100573.50
2022-09-12T12:02:43.952Z,100574.38
2022-09-12T12:05:28.764Z,100566.72
2022-09-12T12:08:04.447Z,100566.41
2022-09-12T12:10:39.205Z,100562.53
2022-09-12T12:13:13.313Z,100549.19
2022-09-12T12:15:47.665Z,100544.63
2022-09-12T12:18:22.418Z,100543.53
2022-09-12T12:20:49.602Z,100546.47
2022-09-12T12:23:32.063Z,100550.19
2022-09-12T12:26:01.771Z,100542.28
2022-09-12T12:28:43.027Z,100544.31
2022-09-12T12:31:10.447Z,100532.31
2022-09-12T12:33:39.806Z,100535.56
2022-09-12T12:36:09.484Z,100530.38
2022-09-12T12:38:37.020Z,100527.84
2022-09-12T12:41:18.341Z,100525.59
2022-09-12T12:43:48.451Z,100523.13
2022-09-12T12:46:16.068Z,100514.91
2022-09-12T12:49:26.744Z,100518.06
2022-09-12T12:51:53.037Z,100514.34
2022-09-12T12:54:27.213Z,100509.13
2022-09-12T12:57:22.623Z,100502.06
2022-09-12T12:59:57.939Z,100495.88
2022-09-12T13:02:32.577Z,100496.38
2022-09-12T13:05:04.287Z,100496.44
2022-09-12T13:07:37.785Z,100493.16
2022-09-12T13:10:07.197Z,100484.06
2022-09-12T13:12:46.303Z,100475.19
2022-09-12T13:15:37.571Z,100486.78
2022-09-12T13:18:07.473Z,100478.22
2022-09-12T13:20:44.692Z,100481.66
2022-09-12T13:23:25.751Z,100483.28
2022-09-12T13:25:56.497Z,100465.69
2022-09-12T13:28:24.047Z,100477.03
2022-09-12T13:31:18.327Z,100463.56
2022-09-12T13:33:50.871Z,100457.25
2022-09-12T13:36:26.299Z,100454.72
2022-09-12T13:39:10.284Z,100451.63
2022-09-12T13:41:51.801Z,100453.94
2022-09-12T13:44:21.623Z,100457.25
2022-09-12T13:46:48.924Z,100446.84
2022-09-12T13:49:30.277Z,100452.94
2022-09-12T13:52:03.205Z,100442.91
2022-09-12T13:54:30.986Z,100440.75
2022-09-12T13:56:57.558Z,100444.47
2022-09-12T13:59:24.639Z,100438.13
2022-09-12T14:01:51.310Z,100438.59
2022-09-12T14:04:42.137Z,100433.00
2022-09-12T14:07:20.966Z,100431.28
2022-09-12T14:09:59.366Z,100424.50
2022-09-12T14:12:30.177Z,100424.41
2022-09-12T14:14:57.230Z,100427.69
2022-09-12T14:17:31.394Z,100422.59
2022-09-12T14:20:03.322Z,100422.44
2022-09-12T14:22:30.292Z,100413.25
2022-09-12T14:24:59.528Z,100417.78
2022-09-12T14:27:30.043Z,100411.69
2022-09-12T14:30:23.212Z,100414.19
2022-09-12T14:33:05.566Z,100413.28
2022-09-12T14:35:33.063Z,100406.78
2022-09-12T14:38:08.124Z,100409.19
2022-09-12T14:40:42.367Z,100408.72
2022-09-12T14:43:20.018Z,100406.94
2022-09-12T14:45:54.347Z,100403.34
2022-09-12T14:48:21.183Z,100392.13
2022-09-12T14:50:52.395Z,100398.22
2022-09-12T14:53:18.638Z,100396.78
2022-09-12T14:56:03.523Z,100384.28
2022-09-12T14:58:30.167Z,100380.91
2022-09-12T15:00:59.452Z,100378.16
2022-09-12T15:03:37.703Z,100371.84
2022-09-12T15:06:08.855Z,100369.97
2022-09-12T15:08:35.380Z,100364.81
2022-09-12T15:11:01.762Z,100368.03
2022-09-12T15:13:28.847Z,100361.44
2022-09-12T15:15:57.670Z,100361.91
2022-09-12T15:18:27.190Z,100369.19
2022-09-12T15:21:02.121Z,100359.78
2022-09-12T15:23:38.025Z,100361.75
2022-09-12T15:26:04.992Z,100366.41
2022-09-12T15:28:32.180Z,100348.69
2022-09-12T15:31:05.856Z,100351.22
2022-09-12T15:33:32.439Z,100346.81
2022-09-12T15:35:58.790Z,100344.16
2022-09-12T15:38:26.750Z,100350.28
2022-09-12T15:40:53.887Z,100348.72
2022-09-12T15:43:21.765Z,100354.13
2022-09-12T15:45:50.364Z,100343.31
2022-09-12T15:48:16.886Z,100343.06
2022-09-12T15:50:43.195Z,100344.41
2022-09-12T15:53:14.941Z,100336.50
2022-09-12T15:55:41.648Z,100333.16
2022-09-12T15:58:09.051Z,100335.13
2022-09-12T16:00:35.594Z,100329.88
2022-09-12T16:03:02.020Z,100325.09
2022-09-12T16:05:29.460Z,100318.47
2022-09-12T16:07:55.754Z,100327.09
2022-09-12T16:10:25.646Z,100328.84
2022-09-12T16:12:52.393Z,100332.56
2022-09-12T16:15:21.471Z,100331.75
2022-09-12T16:17:48.102Z,100330.91
2022-09-12T16:20:15.128Z,100329.03
2022-09-12T16:22:42.244Z,100335.03
2022-09-12T16:25:09.046Z,100328.13
2022-09-12T16:27:36.176Z,100323.34
2022-09-12T16:30:03.989Z,100313.88
2022-09-12T16:32:31.379Z,100306.38
2022-09-12T16:34:57.846Z,100297.59
2022-09-12T16:37:24.378Z,100309.78
2022-09-12T16:39:52.283Z,100305.28
2022-09-12T16:42:19.289Z,100311.25
2022-09-12T16:44:46.921Z,100306.25
2022-09-12T16:47:14.710Z,100312.09
2022-09-12T16:49:41.070Z,100296.13
2022-09-12T16:52:08.047Z,100291.31
2022-09-12T16:54:34.372Z,100294.13
2022-09-12T16:57:00.694Z,100291.28
2022-09-12T16:59:27.000Z,100291.97
2022-09-12T17:01:53.462Z,100300.84
2022-09-12T17:04:23.415Z,100295.84
2022-09-12T17:06:50.199Z,100298.63
2022-09-12T17:09:18.579Z,100311.94
2022-09-12T17:11:50.172Z,100303.31
2022-09-12T17:14:16.784Z,100308.63
2022-09-12T17:16:50.784Z,100299.81
2022-09-12T17:19:21.969Z,100296.91
2022-09-12T17:21:49.869Z,100290.22
2022-09-12T17:24:17.725Z,100298.69
2022-09-12T17:26:44.157Z,100300.63
2022-09-12T17:29:14.612Z,100302.59
2022-09-12T17:31:42.508Z,100296.13
2022-09-12T17:34:09.888Z,100293.81
2022-09-12T17:36:36.628Z,100289.44
2022-09-12T17:39:04.007Z,100293.69
2022-09-12T17:41:34.002Z,100293.94
2022-09-12T17:44:02.309Z,100287.50
2022-09-12T17:46:37.312Z,100288.59
2022-09-12T17:49:06.020Z,100297.84
2022-09-12T17:51:32.468Z,100290.09
2022-09-12T17:54:01.561Z,100299.16
2022-09-12T17:56:30.648Z,100302.50
2022-09-12T17:58:58.299Z,100299.59
2022-09-12T18:01:43.732Z,100297.94
2022-09-12T18:04:10.734Z,100292.69
2022-09-12T18:06:37.471Z,100292.91
2022-09-12T18:09:06.416Z,100295.00
2022-09-12T18:11:33.260Z,100295.00
2022-09-12T18:14:00.316Z,100296.03
2022-09-12T18:16:28.381Z,100297.09
2022-09-12T18:18:55.305Z,100308.00
2022-09-12T18:21:21.651Z,100298.50
2022-09-12T18:23:47.965Z,100304.16
2022-09-12T18:26:14.552Z,100297.66
2022-09-12T18:28:43.151Z,100293.84
2022-09-12T18:31:12.754Z,100305.38
2022-09-12T18:33:39.092Z,100291.91
2022-09-12T18:36:06.634Z,100292.72
2022-09-12T18:38:33.205Z,100289.34
2022-09-12T18:41:13.196Z,100285.56
2022-09-12T18:43:39.520Z,100287.63
2022-09-12T18:46:07.977Z,100290.34
2022-09-12T18:48:34.680Z,100292.22
2022-09-12T18:51:14.571Z,100293.00
2022-09-12T18:53:41.352Z,100294.25
2022-09-12T18:56:12.348Z,100286.91
2022-09-12T18:58:40.859Z,100291.88
2022-09-12T19:01:15.568Z,100287.47
2022-09-12T19:03:42.531Z,100300.22
2022-09-12T19:06:20.752Z,100300.34
2022-09-12T19:08:48.893Z,100294.84
2022-09-12T19:11:16.082Z,100313.63
2022-09-12T19:13:44.591Z,100307.75
2022-09-12T19:16:14.721Z,100313.78
2022-09-12T19:18:41.202Z,100302.28
2022-09-12T19:21:14.712Z,100301.00
2022-09-12T19:23:41.552Z,100303.88
2022-09-12T19:26:11.329Z,100298.31
2022-09-12T19:28:38.162Z,100294.63
2022-09-12T19:31:06.256Z,100298.75
2022-09-12T19:33:32.786Z,100298.25
2022-09-12T19:36:04.525Z,100291.69
2022-09-12T19:38:31.079Z,100299.09
2022-09-12T19:41:02.509Z,100293.00
2022-09-12T19:43:30.597Z,100296.69
2022-09-12T19:45:57.426Z,100292.50
2022-09-12T19:48:24.166Z,100294.31
2022-09-12T19:50:50.773Z,100279.41
2022-09-12T19:53:18.492Z,100283.38
2022-09-12T19:55:45.836Z,100276.44
2022-09-12T19:58:13.217Z,100277.22
2022-09-12T20:00:39.939Z,100270.66
2022-09-12T20:03:06.349Z,100268.78
2022-09-12T20:05:33.302Z,100258.53
2022-09-12T20:08:00.083Z,100255.09
2022-09-12T20:10:26.656Z,100255.78
2022-09-12T20:12:53.000Z,100250.25
2022-09-12T20:15:19.349Z,100247.66
2022-09-12T20:17:45.656Z,100242.69
2022-09-12T20:20:12.036Z,100227.44
2022-09-12T20:22:40.169Z,100239.94
2022-09-12T20:25:07.209Z,100244.97
2022-09-12T20:27:33.611Z,100246.69
2022-09-12T20:29:59.929Z,100249.94
2022-09-12T20:32:28.229Z,100258.19
2022-09-12T20:34:56.230Z,100252.28
2022-09-12T20:37:22.646Z,100248.06
2022-09-12T20:39:50.877Z,100231.91
2022-09-12T20:42:17.588Z,100234.50
2022-09-12T20:44:43.885Z,100224.16
2022-09-12T20:47:10.198Z,100216.84
2022-09-12T20:49:36.636Z,100214.16
2022-09-12T20:52:03.295Z,100208.22
2022-09-12T20:54:30.910Z,100220.97
2022-09-12T20:56:57.210Z,100214.59
2022-09-12T20:59:23.729Z,100212.81
2022-09-12T21:01:50.183Z,100214.69
2022-09-12T21:04:16.692Z,100213.06
2022-09-12T21:06:43.275Z,100219.09
2022-09-12T21:09:09.654Z,100212.50
2022-09-12T21:11:35.974Z,100230.31
2022-09-12T21:14:02.356Z,100208.16
2022-09-12T21:16:28.752Z,100213.09
2022-09-12T21:18:57.993Z,100220.66
2022-09-12T21:21:25.456Z,100219.31
2022-09-12T21:23:51.799Z,100220.53
2022-09-12T21:26:18.390Z,100219.69
2022-09-12T21:28:44.756Z,100221.03
2022-09-12T21:31:11.147Z,100222.41
2022-09-12T21:33:37.585Z,100222.22
2022-09-12T21:36:05.452Z,100218.19
2022-09-12T21:38:32.892Z,100226.13
2022-09-12T21:41:11.119Z,100225.81
2022-09-12T21:43:38.166Z,100226.66
2022-09-12T21:46:06.235Z,100225.00
2022-09-12T21:48:33.076Z,100221.44
2022-09-12T21:50:59.712Z,100218.19
2022-09-12T21:53:26.478Z,100214.53
2022-09-12T21:55:52.829Z,100220.97
2022-09-12T21:58:19.497Z,100226.13
2022-09-12T22:00:45.998Z,100212.13
2022-09-12T22:03:12.623Z,100214.66
2022-09-12T22:05:43.036Z,100208.47
2022-09-12T22:08:10.664Z,100210.78
2022-09-12T22:10:38.439Z,100204.78
2022-09-12T22:13:05.203Z,100205.31
2022-09-12T22:15:46.939Z,100216.75
2022-09-12T22:18:13.371Z,100212.91
2022-09-12T22:20:39.715Z,100213.31
2022-09-12T22:23:25.258Z,100215.38
2022-09-12T22:25:55.448Z,100211.94
2022-09-12T22:28:22.495Z,100204.38
2022-09-12T22:30:48.796Z,100200.09
2022-09-12T22:33:15.183Z,100190.19
2022-09-12T22:35:42.276Z,100192.91
2022-09-12T22:38:08.958Z,100192.91
2022-09-12T22:40:35.458Z,100198.47
2022-09-12T22:43:02.207Z,100193.09
2022-09-12T22:45:28.824Z,100187.53
2022-09-12T22:47:57.170Z,100184.16
2022-09-12T22:50:25.659Z,100186.84
2022-09-12T22:52:52.417Z,100185.41
2022-09-12T22:55:18.699Z,100190.56
2022-09-12T22:57:45.026Z,100185.00
2022-09-12T23:00:11.982Z,100179.59
2022-09-12T23:02:38.306Z,100187.16
2022-09-12T23:05:04.957Z,100190.91
2022-09-12T23:07:31.401Z,100195.47
2022-09-12T23:09:57.698Z,100184.13
2022-09-12T23:12:24.061Z,100169.25
2022-09-12T23:14:50.442Z,100180.06
2022-09-12T23:17:16.916Z,100180.97
2022-09-12T23:19:43.203Z,100188.72
2022-09-12T23:22:09.529Z,100196.03
2022-09-12T23:24:35.844Z,100182.00
2022-09-12T23:27:02.124Z,100191.97
2022-09-12T23:29:28.420Z,100190.63
2022-09-12T23:31:55.384Z,100181.28
2022-09-12T23:34:21.819Z,100187.16
2022-09-12T23:36:48.137Z,100188.22
2022-09-12T23:39:14.445Z,100184.38
2022-09-12T23:41:40.732Z,100204.09
2022-09-12T23:44:07.144Z,100199.63
2022-09-12T23:46:33.914Z,100214.06
2022-09-12T23:49:00.191Z,100208.50
2022-09-12T23:51:26.805Z,100187.97
2022-09-12T23:53:53.127Z,100181.75
2022-09-12T23:56:19.493Z,100172.44
2022-09-12T23:58:45.840Z,100174.13
